sensor_id;sensor_type;location;lat;lon;timestamp;pressure;altitude;pressure_sealevel;temperature;humidity
6393;BME280;3229;42.674;23.282;2023-03-18T00:01:13;95009.78;;;7.15;57.83
6393;BME280;3229;42.674;23.282;2023-03-18T00:03:42;95006.44;;;7.14;57.89
6393;BME280;3229;42.674;23.282;2023-03-18T00:06:12;95004.22;;;7.10;57.73
6393;BME280;3229;42.674;23.282;2023-03-18T00:08:40;95003.41;;;7.09;58.04
6393;BME280;3229;42.674;23.282;2023-03-18T00:11:08;95000.94;;;7.08;57.96
6393;BME280;3229;42.674;23.282;2023-03-18T00:13:37;95001.88;;;7.07;57.98
6393;BME280;3229;42.674;23.282;2023-03-18T00:16:07;94990.91;;;7.06;58.00
6393;BME280;3229;42.674;23.282;2023-03-18T00:18:36;94993.56;;;7.04;58.00
6393;BME280;3229;42.674;23.282;2023-03-18T00:21:05;94992.84;;;7.02;58.08
6393;BME280;3229;42.674;23.282;2023-03-18T00:23:32;94998.06;;;7.01;57.94
6393;BME280;3229;42.674;23.282;2023-03-18T00:26:01;94992.25;;;6.99;58.03
6393;BME280;3229;42.674;23.282;2023-03-18T00:28:29;94988.81;;;7.00;58.10
6393;BME280;3229;42.674;23.282;2023-03-18T00:31:02;94982.19;;;6.97;58.03
6393;BME280;3229;42.674;23.282;2023-03-18T00:33:33;94977.31;;;6.94;58.04
6393;BME280;3229;42.674;23.282;2023-03-18T00:36:00;94978.84;;;6.97;58.27
6393;BME280;3229;42.674;23.282;2023-03-18T00:38:28;94984.84;;;6.96;58.23
6393;BME280;3229;42.674;23.282;2023-03-18T00:40:55;94978.97;;;6.95;58.23
6393;BME280;3229;42.674;23.282;2023-03-18T00:43:37;94974.09;;;6.92;58.30
6393;BME280;3229;42.674;23.282;2023-03-18T00:46:12;94969.00;;;6.92;58.55
6393;BME280;3229;42.674;23.282;2023-03-18T00:48:38;94964.94;;;6.90;58.36
6393;BME280;3229;42.674;23.282;2023-03-18T00:51:05;94966.66;;;6.89;58.38
6393;BME280;3229;42.674;23.282;2023-03-18T00:53:33;94965.88;;;6.89;58.38
6393;BME280;3229;42.674;23.282;2023-03-18T00:56:00;94956.63;;;6.88;58.41
6393;BME280;3229;42.674;23.282;2023-03-18T00:58:27;94953.28;;;6.87;58.59
6393;BME280;3229;42.674;23.282;2023-03-18T01:00:54;94953.47;;;6.84;58.55
6393;BME280;3229;42.674;23.282;2023-03-18T01:03:21;94958.44;;;6.86;58.76
6393;BME280;3229;42.674;23.282;2023-03-18T01:05:51;94950.00;;;6.85;58.64
6393;BME280;3229;42.674;23.282;2023-03-18T01:08:20;94953.34;;;6.86;58.71
6393;BME280;3229;42.674;23.282;2023-03-18T01:10:49;94949.19;;;6.85;58.90
6393;BME280;3229;42.674;23.282;2023-03-18T01:13:17;94947.69;;;6.82;58.98
6393;BME280;3229;42.674;23.282;2023-03-18T01:15:45;94933.47;;;6.79;58.99
6393;BME280;3229;42.674;23.282;2023-03-18T01:18:12;94940.88;;;6.83;59.14
6393;BME280;3229;42.674;23.282;2023-03-18T01:20:39;94941.78;;;6.82;58.92
6393;BME280;3229;42.674;23.282;2023-03-18T01:23:07;94941.78;;;6.82;58.98
6393;BME280;3229;42.674;23.282;2023-03-18T01:25:34;94944.31;;;6.82;59.02
6393;BME280;3229;42.674;23.282;2023-03-18T01:28:03;94932.06;;;6.75;58.97
6393;BME280;3229;42.674;23.282;2023-03-18T01:30:32;94931.75;;;6.80;59.03
6393;BME280;3229;42.674;23.282;2023-03-18T01:33:16;94937.75;;;6.79;59.19
6393;BME280;3229;42.674;23.282;2023-03-18T01:35:45;94938.69;;;6.78;59.50
6393;BME280;3229;42.674;23.282;2023-03-18T01:38:19;94913.41;;;6.64;59.20
6393;BME280;3229;42.674;23.282;2023-03-18T01:40:50;94931.25;;;6.75;59.10
6393;BME280;3229;42.674;23.282;2023-03-18T01:43:21;94921.31;;;6.72;59.31
6393;BME280;3229;42.674;23.282;2023-03-18T01:45:51;94929.03;;;6.70;59.20
6393;BME280;3229;42.674;23.282;2023-03-18T01:48:20;94929.03;;;6.70;59.33
6393;BME280;3229;42.674;23.282;2023-03-18T01:50:50;94937.59;;;6.69;59.20
6393;BME280;3229;42.674;23.282;2023-03-18T01:53:20;94926.59;;;6.69;59.22
6393;BME280;3229;42.674;23.282;2023-03-18T01:55:49;94922.66;;;6.65;59.31
6393;BME280;3229;42.674;23.282;2023-03-18T01:58:21;94922.44;;;6.68;59.36
6393;BME280;3229;42.674;23.282;2023-03-18T02:00:54;94929.38;;;6.66;59.29
6393;BME280;3229;42.674;23.282;2023-03-18T02:03:24;94924.28;;;6.66;59.27
6393;BME280;3229;42.674;23.282;2023-03-18T02:05:52;94920.34;;;6.62;59.42
6393;BME280;3229;42.674;23.282;2023-03-18T02:08:19;94921.94;;;6.63;59.34
6393;BME280;3229;42.674;23.282;2023-03-18T02:10:46;94918.59;;;6.62;59.39
6393;BME280;3229;42.674;23.282;2023-03-18T02:13:14;94921.16;;;6.62;59.38
6393;BME280;3229;42.674;23.282;2023-03-18T02:15:47;94917.06;;;6.60;59.42
6393;BME280;3229;42.674;23.282;2023-03-18T02:18:19;94909.78;;;6.55;59.41
6393;BME280;3229;42.674;23.282;2023-03-18T02:20:59;94913.84;;;6.58;59.36
6393;BME280;3229;42.674;23.282;2023-03-18T02:23:40;94911.41;;;6.56;59.45
6393;BME280;3229;42.674;23.282;2023-03-18T02:26:13;94911.63;;;6.53;59.67
6393;BME280;3229;42.674;23.282;2023-03-18T02:28:44;94910.81;;;6.52;59.39
6393;BME280;3229;42.674;23.282;2023-03-18T02:31:13;94918.31;;;6.54;59.51
6393;BME280;3229;42.674;23.282;2023-03-18T02:33:43;94917.63;;;6.52;59.49
6393;BME280;3229;42.674;23.282;2023-03-18T02:36:14;94906.16;;;6.46;59.48
6393;BME280;3229;42.674;23.282;2023-03-18T02:38:45;94900.28;;;6.46;59.46
6393;BME280;3229;42.674;23.282;2023-03-18T02:41:16;94918.66;;;6.49;59.60
6393;BME280;3229;42.674;23.282;2023-03-18T02:43:45;94913.69;;;6.48;59.68
6393;BME280;3229;42.674;23.282;2023-03-18T02:46:25;94911.25;;;6.46;59.60
6393;BME280;3229;42.674;23.282;2023-03-18T02:48:55;94915.50;;;6.46;59.64
6393;BME280;3229;42.674;23.282;2023-03-18T02:51:23;94910.53;;;6.44;59.74
6393;BME280;3229;42.674;23.282;2023-03-18T02:53:51;94910.53;;;6.44;59.76
6393;BME280;3229;42.674;23.282;2023-03-18T02:56:20;94914.81;;;6.44;59.76
6393;BME280;3229;42.674;23.282;2023-03-18T02:58:49;94908.22;;;6.41;59.79
6393;BME280;3229;42.674;23.282;2023-03-18T03:01:16;94910.88;;;6.40;59.85
6393;BME280;3229;42.674;23.282;2023-03-18T03:03:44;94914.22;;;6.40;59.79
6393;BME280;3229;42.674;23.282;2023-03-18T03:06:11;94915.94;;;6.40;59.62
6393;BME280;3229;42.674;23.282;2023-03-18T03:08:38;94915.16;;;6.39;59.75
6393;BME280;3229;42.674;23.282;2023-03-18T03:11:07;94911.75;;;6.39;59.90
6393;BME280;3229;42.674;23.282;2023-03-18T03:13:38;94913.63;;;6.37;59.84
6393;BME280;3229;42.674;23.282;2023-03-18T03:16:08;94915.44;;;6.35;59.97
6393;BME280;3229;42.674;23.282;2023-03-18T03:18:35;94920.50;;;6.35;59.90
6393;BME280;3229;42.674;23.282;2023-03-18T03:21:02;94911.50;;;6.31;59.90
6393;BME280;3229;42.674;23.282;2023-03-18T03:23:29;94915.66;;;6.32;60.00
6393;BME280;3229;42.674;23.282;2023-03-18T03:25:56;94918.22;;;6.32;60.05
6393;BME280;3229;42.674;23.282;2023-03-18T03:28:23;94922.56;;;6.29;60.09
6393;BME280;3229;42.674;23.282;2023-03-18T03:30:51;94928.56;;;6.28;60.11
6393;BME280;3229;42.674;23.282;2023-03-18T03:33:19;94932.03;;;6.27;60.27
6393;BME280;3229;42.674;23.282;2023-03-18T03:35:47;94927.75;;;6.28;60.12
6393;BME280;3229;42.674;23.282;2023-03-18T03:38:14;94931.22;;;6.27;60.12
6393;BME280;3229;42.674;23.282;2023-03-18T03:40:42;94927.03;;;6.26;60.20
6393;BME280;3229;42.674;23.282;2023-03-18T03:43:12;94929.69;;;6.24;60.23
6393;BME280;3229;42.674;23.282;2023-03-18T03:45:39;94926.34;;;6.24;60.36
6393;BME280;3229;42.674;23.282;2023-03-18T03:48:06;94924.94;;;6.20;60.32
6393;BME280;3229;42.674;23.282;2023-03-18T03:50:35;94936.50;;;6.24;60.23
6393;BME280;3229;42.674;23.282;2023-03-18T03:53:02;94936.63;;;6.22;60.41
6393;BME280;3229;42.674;23.282;2023-03-18T03:55:30;94936.63;;;6.22;60.43
6393;BME280;3229;42.674;23.282;2023-03-18T03:57:58;94934.97;;;6.21;60.29
6393;BME280;3229;42.674;23.282;2023-03-18T04:00:25;94931.63;;;6.21;60.34
6393;BME280;3229;42.674;23.282;2023-03-18T04:02:52;94928.00;;;6.12;60.44
6393;BME280;3229;42.674;23.282;2023-03-18T04:05:22;94932.75;;;6.17;60.45
6393;BME280;3229;42.674;23.282;2023-03-18T04:07:51;94932.75;;;6.17;60.52
6393;BME280;3229;42.674;23.282;2023-03-18T04:10:19;94926.25;;;6.13;60.45
6393;BME280;3229;42.674;23.282;2023-03-18T04:12:47;94932.88;;;6.15;60.33
6393;BME280;3229;42.674;23.282;2023-03-18T04:15:19;94939.78;;;6.13;60.35
6393;BME280;3229;42.674;23.282;2023-03-18T04:17:47;94946.56;;;6.13;60.36
6393;BME280;3229;42.674;23.282;2023-03-18T04:20:14;94953.38;;;6.12;60.41
6393;BME280;3229;42.674;23.282;2023-03-18T04:22:41;94946.88;;;6.08;60.59
6393;BME280;3229;42.674;23.282;2023-03-18T04:25:11;94949.44;;;6.08;60.45
6393;BME280;3229;42.674;23.282;2023-03-18T04:27:39;94956.97;;;6.10;60.47
6393;BME280;3229;42.674;23.282;2023-03-18T04:30:08;94961.31;;;6.08;60.41
6393;BME280;3229;42.674;23.282;2023-03-18T04:32:35;94962.13;;;6.08;60.55
6393;BME280;3229;42.674;23.282;2023-03-18T04:35:02;94966.31;;;6.09;60.54
6393;BME280;3229;42.674;23.282;2023-03-18T04:37:29;94964.88;;;6.05;60.41
6393;BME280;3229;42.674;23.282;2023-03-18T04:39:58;94973.19;;;6.07;60.47
6393;BME280;3229;42.674;23.282;2023-03-18T04:42:26;94975.63;;;6.09;60.50
6393;BME280;3229;42.674;23.282;2023-03-18T04:44:53;94972.06;;;6.11;60.51
6393;BME280;3229;42.674;23.282;2023-03-18T04:47:20;94975.44;;;6.12;60.38
6393;BME280;3229;42.674;23.282;2023-03-18T04:49:47;94976.97;;;6.14;60.47
6393;BME280;3229;42.674;23.282;2023-03-18T04:52:14;94982.53;;;6.19;60.39
6393;BME280;3229;42.674;23.282;2023-03-18T04:54:41;94984.16;;;6.20;60.29
6393;BME280;3229;42.674;23.282;2023-03-18T04:57:08;94980.38;;;6.26;60.22
6393;BME280;3229;42.674;23.282;2023-03-18T04:59:37;94980.91;;;6.31;60.06
6393;BME280;3229;42.674;23.282;2023-03-18T05:02:03;94983.00;;;6.37;60.15
6393;BME280;3229;42.674;23.282;2023-03-18T05:04:30;94985.94;;;6.44;59.95
6393;BME280;3229;42.674;23.282;2023-03-18T05:06:58;94979.31;;;6.54;59.78
6393;BME280;3229;42.674;23.282;2023-03-18T05:09:24;94989.31;;;6.68;59.70
6393;BME280;3229;42.674;23.282;2023-03-18T05:11:51;94983.06;;;6.85;59.57
6393;BME280;3229;42.674;23.282;2023-03-18T05:14:18;94985.59;;;7.09;59.04
6393;BME280;3229;42.674;23.282;2023-03-18T05:16:47;94986.53;;;7.43;58.38
6393;BME280;3229;42.674;23.282;2023-03-18T05:19:13;94982.34;;;7.89;58.23
6393;BME280;3229;42.674;23.282;2023-03-18T05:21:41;94990.94;;;8.44;57.77
6393;BME280;3229;42.674;23.282;2023-03-18T05:24:08;94977.72;;;9.04;57.61
6393;BME280;3229;42.674;23.282;2023-03-18T05:26:35;94971.47;;;9.71;57.35
6393;BME280;3229;42.674;23.282;2023-03-18T05:29:03;94975.50;;;10.46;56.85
6393;BME280;3229;42.674;23.282;2023-03-18T05:31:29;94980.06;;;11.22;56.38
6393;BME280;3229;42.674;23.282;2023-03-18T05:33:58;94968.66;;;12.02;55.53
6393;BME280;3229;42.674;23.282;2023-03-18T05:36:24;94971.53;;;12.81;54.55
6393;BME280;3229;42.674;23.282;2023-03-18T05:38:51;94965.56;;;13.62;53.69
6393;BME280;3229;42.674;23.282;2023-03-18T05:41:18;94969.88;;;14.40;52.85
6393;BME280;3229;42.674;23.282;2023-03-18T05:43:45;94975.59;;;15.18;51.90
6393;BME280;3229;42.674;23.282;2023-03-18T05:46:11;94983.88;;;15.95;51.00
6393;BME280;3229;42.674;23.282;2023-03-18T05:48:38;94983.34;;;16.72;49.78
6393;BME280;3229;42.674;23.282;2023-03-18T05:51:07;94986.16;;;17.47;48.91
6393;BME280;3229;42.674;23.282;2023-03-18T05:53:34;94982.78;;;18.22;48.12
6393;BME280;3229;42.674;23.282;2023-03-18T05:56:00;94985.53;;;18.95;47.28
6393;BME280;3229;42.674;23.282;2023-03-18T05:58:27;94992.47;;;19.67;46.21
6393;BME280;3229;42.674;23.282;2023-03-18T06:00:56;94995.81;;;20.38;45.67
6393;BME280;3229;42.674;23.282;2023-03-18T06:03:23;95002.97;;;21.05;44.63
6393;BME280;3229;42.674;23.282;2023-03-18T06:05:50;95007.16;;;21.68;43.65
6393;BME280;3229;42.674;23.282;2023-03-18T06:08:19;95009.38;;;22.31;43.19
6393;BME280;3229;42.674;23.282;2023-03-18T06:10:47;95013.28;;;22.93;42.56
6393;BME280;3229;42.674;23.282;2023-03-18T06:13:14;95010.97;;;23.54;41.89
6393;BME280;3229;42.674;23.282;2023-03-18T06:15:40;95010.34;;;24.16;41.28
6393;BME280;3229;42.674;23.282;2023-03-18T06:18:07;95011.03;;;24.73;40.46
6393;BME280;3229;42.674;23.282;2023-03-18T06:20:34;95003.75;;;25.30;39.91
6393;BME280;3229;42.674;23.282;2023-03-18T06:23:01;95021.56;;;25.70;39.70
6393;BME280;3229;42.674;23.282;2023-03-18T06:25:29;95026.00;;;25.99;38.58
6393;BME280;3229;42.674;23.282;2023-03-18T06:27:56;95013.94;;;26.22;38.88
6393;BME280;3229;42.674;23.282;2023-03-18T06:30:23;95012.78;;;26.41;40.11
6393;BME280;3229;42.674;23.282;2023-03-18T06:32:50;95013.16;;;26.57;39.83
6393;BME280;3229;42.674;23.282;2023-03-18T06:35:17;95005.50;;;26.67;40.66
6393;BME280;3229;42.674;23.282;2023-03-18T06:37:44;94996.13;;;26.71;40.15
6393;BME280;3229;42.674;23.282;2023-03-18T06:40:11;94983.69;;;26.78;39.92
6393;BME280;3229;42.674;23.282;2023-03-18T06:42:40;94980.47;;;26.88;37.67
6393;BME280;3229;42.674;23.282;2023-03-18T06:45:08;94969.72;;;26.89;36.60
6393;BME280;3229;42.674;23.282;2023-03-18T06:47:35;94976.22;;;26.98;36.03
6393;BME280;3229;42.674;23.282;2023-03-18T06:50:03;94980.09;;;27.08;36.12
6393;BME280;3229;42.674;23.282;2023-03-18T06:52:30;94977.44;;;27.19;36.05
6393;BME280;3229;42.674;23.282;2023-03-18T06:54:57;94975.56;;;27.32;35.69
6393;BME280;3229;42.674;23.282;2023-03-18T06:57:24;94970.88;;;27.34;35.61
6393;BME280;3229;42.674;23.282;2023-03-18T06:59:53;94981.56;;;27.44;35.73
6393;BME280;3229;42.674;23.282;2023-03-18T07:02:20;94981.09;;;27.47;36.01
6393;BME280;3229;42.674;23.282;2023-03-18T07:04:48;94983.22;;;27.50;35.48
6393;BME280;3229;42.674;23.282;2023-03-18T07:07:15;94983.22;;;27.50;35.19
6393;BME280;3229;42.674;23.282;2023-03-18T07:09:42;94978.81;;;27.50;35.50
6393;BME280;3229;42.674;23.282;2023-03-18T07:12:11;94988.59;;;27.55;35.34
6393;BME280;3229;42.674;23.282;2023-03-18T07:14:39;94980.81;;;27.60;34.93
6393;BME280;3229;42.674;23.282;2023-03-18T07:17:08;94981.69;;;27.66;34.90
6393;BME280;3229;42.674;23.282;2023-03-18T07:19:37;94983.59;;;27.70;34.26
6393;BME280;3229;42.674;23.282;2023-03-18T07:22:04;94988.75;;;27.77;34.26
6393;BME280;3229;42.674;23.282;2023-03-18T07:24:31;94981.97;;;27.81;34.05
6393;BME280;3229;42.674;23.282;2023-03-18T07:26:58;94979.88;;;27.83;33.91
6393;BME280;3229;42.674;23.282;2023-03-18T07:29:24;94985.41;;;27.82;33.66
6393;BME280;3229;42.674;23.282;2023-03-18T07:31:51;94991.91;;;27.79;33.86
6393;BME280;3229;42.674;23.282;2023-03-18T07:34:20;94995.41;;;27.85;33.87
6393;BME280;3229;42.674;23.282;2023-03-18T07:36:47;94998.84;;;28.02;32.68
6393;BME280;3229;42.674;23.282;2023-03-18T07:39:13;94989.75;;;28.26;32.75
6393;BME280;3229;42.674;23.282;2023-03-18T07:41:40;94986.00;;;28.56;32.75
6393;BME280;3229;42.674;23.282;2023-03-18T07:44:07;94998.03;;;28.91;32.63
6393;BME280;3229;42.674;23.282;2023-03-18T07:46:34;95000.50;;;29.19;32.51
6393;BME280;3229;42.674;23.282;2023-03-18T07:49:01;95012.91;;;29.46;32.07
6393;BME280;3229;42.674;23.282;2023-03-18T07:51:29;94999.44;;;29.69;31.81
6393;BME280;3229;42.674;23.282;2023-03-18T07:53:56;95000.44;;;29.90;32.05
6393;BME280;3229;42.674;23.282;2023-03-18T07:56:23;94995.56;;;30.09;32.05
6393;BME280;3229;42.674;23.282;2023-03-18T07:58:50;95000.50;;;30.28;31.84
6393;BME280;3229;42.674;23.282;2023-03-18T08:01:17;95001.63;;;30.42;31.58
6393;BME280;3229;42.674;23.282;2023-03-18T08:03:45;94986.09;;;30.45;31.75
6393;BME280;3229;42.674;23.282;2023-03-18T08:06:12;95006.19;;;30.57;31.57
6393;BME280;3229;42.674;23.282;2023-03-18T08:08:41;95008.06;;;30.61;31.43
6393;BME280;3229;42.674;23.282;2023-03-18T08:11:09;94994.91;;;30.66;31.50
6393;BME280;3229;42.674;23.282;2023-03-18T08:13:37;94994.94;;;30.71;31.44
6393;BME280;3229;42.674;23.282;2023-03-18T08:16:04;94989.19;;;30.75;31.63
6393;BME280;3229;42.674;23.282;2023-03-18T08:18:31;94991.56;;;30.76;31.70
6393;BME280;3229;42.674;23.282;2023-03-18T08:20:58;94992.28;;;30.71;31.67
6393;BME280;3229;42.674;23.282;2023-03-18T08:23:25;94994.13;;;30.66;31.65
6393;BME280;3229;42.674;23.282;2023-03-18T08:25:53;94988.28;;;30.59;31.42
6393;BME280;3229;42.674;23.282;2023-03-18T08:28:20;95000.06;;;30.46;32.04
6393;BME280;3229;42.674;23.282;2023-03-18T08:30:52;95003.16;;;30.33;32.12
6393;BME280;3229;42.674;23.282;2023-03-18T08:33:20;95004.66;;;30.18;32.36
6393;BME280;3229;42.674;23.282;2023-03-18T08:35:47;94998.16;;;30.04;32.79
6393;BME280;3229;42.674;23.282;2023-03-18T08:38:13;94997.28;;;29.93;32.39
6393;BME280;3229;42.674;23.282;2023-03-18T08:40:41;94992.44;;;29.80;32.84
6393;BME280;3229;42.674;23.282;2023-03-18T08:43:09;94989.66;;;29.65;32.64
6393;BME280;3229;42.674;23.282;2023-03-18T08:45:36;94995.56;;;29.50;32.96
6393;BME280;3229;42.674;23.282;2023-03-18T08:48:03;94985.84;;;29.29;33.00
6393;BME280;3229;42.674;23.282;2023-03-18T08:50:30;94995.16;;;29.14;32.53
6393;BME280;3229;42.674;23.282;2023-03-18T08:52:58;94992.38;;;28.99;32.65
6393;BME280;3229;42.674;23.282;2023-03-18T08:55:28;94995.28;;;28.81;32.71
6393;BME280;3229;42.674;23.282;2023-03-18T08:57:55;94997.69;;;28.65;32.39
6393;BME280;3229;42.674;23.282;2023-03-18T09:00:24;94998.25;;;28.45;32.72
6393;BME280;3229;42.674;23.282;2023-03-18T09:02:51;94988.97;;;28.26;32.40
6393;BME280;3229;42.674;23.282;2023-03-18T09:05:18;95001.00;;;28.05;32.24
6393;BME280;3229;42.674;23.282;2023-03-18T09:07:45;94998.03;;;27.85;32.25
6393;BME280;3229;42.674;23.282;2023-03-18T09:10:13;94997.44;;;27.66;32.37
6393;BME280;3229;42.674;23.282;2023-03-18T09:12:42;95001.31;;;27.46;32.40
6393;BME280;3229;42.674;23.282;2023-03-18T09:15:11;94995.44;;;27.27;32.20
6393;BME280;3229;42.674;23.282;2023-03-18T09:17:41;94998.47;;;27.08;32.26
6393;BME280;3229;42.674;23.282;2023-03-18T09:20:10;94992.00;;;26.87;32.26
6393;BME280;3229;42.674;23.282;2023-03-18T09:22:37;95002.06;;;26.66;32.13
6393;BME280;3229;42.674;23.282;2023-03-18T09:25:05;94994.78;;;26.45;31.88
6393;BME280;3229;42.674;23.282;2023-03-18T09:27:32;95001.16;;;26.25;31.83
6393;BME280;3229;42.674;23.282;2023-03-18T09:29:59;95003.88;;;26.07;32.09
6393;BME280;3229;42.674;23.282;2023-03-18T09:32:26;95004.41;;;25.86;31.87
6393;BME280;3229;42.674;23.282;2023-03-18T09:34:54;95000.69;;;25.63;31.80
6393;BME280;3229;42.674;23.282;2023-03-18T09:37:21;94995.16;;;25.41;31.70
6393;BME280;3229;42.674;23.282;2023-03-18T09:39:48;94997.81;;;25.23;31.74
6393;BME280;3229;42.674;23.282;2023-03-18T09:42:30;94996.06;;;24.98;31.89
6393;BME280;3229;42.674;23.282;2023-03-18T09:45:09;94991.13;;;24.72;31.70
6393;BME280;3229;42.674;23.282;2023-03-18T09:47:49;94989.09;;;24.37;31.69
6393;BME280;3229;42.674;23.282;2023-03-18T09:50:34;94987.09;;;24.08;31.72
6393;BME280;3229;42.674;23.282;2023-03-18T09:53:11;94984.94;;;23.80;32.08
6393;BME280;3229;42.674;23.282;2023-03-18T09:55:41;94973.28;;;23.44;32.26
6393;BME280;3229;42.674;23.282;2023-03-18T09:58:19;94989.31;;;23.16;32.19
6393;BME280;3229;42.674;23.282;2023-03-18T10:00:47;94987.22;;;22.93;32.42
6393;BME280;3229;42.674;23.282;2023-03-18T10:03:24;94989.22;;;22.71;32.35
6393;BME280;3229;42.674;23.282;2023-03-18T10:05:58;94987.72;;;22.50;32.60
6393;BME280;3229;42.674;23.282;2023-03-18T10:08:37;94986.94;;;22.23;32.52
6393;BME280;3229;42.674;23.282;2023-03-18T10:11:15;94986.34;;;22.08;32.72
6393;BME280;3229;42.674;23.282;2023-03-18T10:13:51;94980.94;;;21.89;32.54
6393;BME280;3229;42.674;23.282;2023-03-18T10:16:23;94988.94;;;21.68;32.79
6393;BME280;3229;42.674;23.282;2023-03-18T10:18:51;94982.69;;;21.42;32.83
6393;BME280;3229;42.674;23.282;2023-03-18T10:21:33;94981.41;;;21.18;33.09
6393;BME280;3229;42.674;23.282;2023-03-18T10:24:13;94978.94;;;20.97;33.10
6393;BME280;3229;42.674;23.282;2023-03-18T10:26:46;94983.50;;;20.88;33.07
6393;BME280;3229;42.674;23.282;2023-03-18T10:29:30;94982.59;;;20.68;33.17
6393;BME280;3229;42.674;23.282;2023-03-18T10:32:09;94973.88;;;20.47;33.30
6393;BME280;3229;42.674;23.282;2023-03-18T10:34:40;94973.56;;;20.29;33.42
6393;BME280;3229;42.674;23.282;2023-03-18T10:37:17;94973.75;;;20.21;33.46
6393;BME280;3229;42.674;23.282;2023-03-18T10:39:46;94975.34;;;20.22;33.30
6393;BME280;3229;42.674;23.282;2023-03-18T10:42:26;94971.50;;;20.18;33.34
6393;BME280;3229;42.674;23.282;2023-03-18T10:45:06;94976.00;;;20.02;33.33
6393;BME280;3229;42.674;23.282;2023-03-18T10:47:37;94971.47;;;19.83;33.33
6393;BME280;3229;42.674;23.282;2023-03-18T10:50:11;94962.66;;;19.77;33.42
6393;BME280;3229;42.674;23.282;2023-03-18T10:52:46;94965.47;;;19.83;33.36
6393;BME280;3229;42.674;23.282;2023-03-18T10:55:19;94960.84;;;19.78;33.18
6393;BME280;3229;42.674;23.282;2023-03-18T10:57:48;94962.16;;;19.67;33.20
6393;BME280;3229;42.674;23.282;2023-03-18T11:00:25;94960.31;;;19.61;33.15
6393;BME280;3229;42.674;23.282;2023-03-18T11:02:53;94959.22;;;19.55;33.10
6393;BME280;3229;42.674;23.282;2023-03-18T11:05:23;94960.75;;;19.50;33.13
6393;BME280;3229;42.674;23.282;2023-03-18T11:08:00;94939.91;;;19.37;33.19
6393;BME280;3229;42.674;23.282;2023-03-18T11:10:31;94964.66;;;19.39;33.22
6393;BME280;3229;42.674;23.282;2023-03-18T11:13:00;94952.53;;;19.25;33.29
6393;BME280;3229;42.674;23.282;2023-03-18T11:15:28;94941.47;;;18.95;33.38
6393;BME280;3229;42.674;23.282;2023-03-18T11:17:59;94958.81;;;18.94;33.53
6393;BME280;3229;42.674;23.282;2023-03-18T11:20:33;94958.75;;;18.73;33.80
6393;BME280;3229;42.674;23.282;2023-03-18T11:23:14;94958.50;;;18.53;33.84
6393;BME280;3229;42.674;23.282;2023-03-18T11:25:44;94957.44;;;18.33;33.88
6393;BME280;3229;42.674;23.282;2023-03-18T11:28:19;94953.59;;;18.14;34.09
6393;BME280;3229;42.674;23.282;2023-03-18T11:30:48;94959.09;;;17.96;34.26
6393;BME280;3229;42.674;23.282;2023-03-18T11:33:17;94920.13;;;17.60;34.34
6393;BME280;3229;42.674;23.282;2023-03-18T11:35:50;94952.34;;;17.72;34.49
6393;BME280;3229;42.674;23.282;2023-03-18T11:38:23;94948.28;;;17.77;34.24
6393;BME280;3229;42.674;23.282;2023-03-18T11:40:53;94951.44;;;17.88;34.05
6393;BME280;3229;42.674;23.282;2023-03-18T11:43:30;94935.38;;;17.92;33.95
6393;BME280;3229;42.674;23.282;2023-03-18T11:45:59;94938.69;;;18.01;33.95
6393;BME280;3229;42.674;23.282;2023-03-18T11:48:31;94940.91;;;18.04;33.87
6393;BME280;3229;42.674;23.282;2023-03-18T11:51:26;94937.78;;;17.94;33.73
6393;BME280;3229;42.674;23.282;2023-03-18T11:54:14;94942.69;;;17.89;33.65
6393;BME280;3229;42.674;23.282;2023-03-18T11:56:46;94938.56;;;17.79;33.83
6393;BME280;3229;42.674;23.282;2023-03-18T11:59:35;94945.88;;;17.76;33.76
6393;BME280;3229;42.674;23.282;2023-03-18T12:02:23;94936.03;;;17.71;33.96
6393;BME280;3229;42.674;23.282;2023-03-18T12:08:04;94959.16;;;17.50;33.92
6393;BME280;3229;42.674;23.282;2023-03-18T12:10:39;94947.47;;;17.54;33.75
6393;BME280;3229;42.674;23.282;2023-03-18T12:13:28;94943.03;;;17.63;33.80
6393;BME280;3229;42.674;23.282;2023-03-18T12:16:04;94942.69;;;17.66;33.52
6393;BME280;3229;42.674;23.282;2023-03-18T12:18:47;94950.75;;;17.71;33.77
6393;BME280;3229;42.674;23.282;2023-03-18T12:21:40;94946.19;;;17.73;33.36
6393;BME280;3229;42.674;23.282;2023-03-18T12:24:32;94931.44;;;17.59;33.38
6393;BME280;3229;42.674;23.282;2023-03-18T12:27:11;94936.69;;;17.50;33.47
6393;BME280;3229;42.674;23.282;2023-03-18T12:30:13;94933.75;;;17.30;33.68
6393;BME280;3229;42.674;23.282;2023-03-18T12:32:48;94944.31;;;17.21;33.79
6393;BME280;3229;42.674;23.282;2023-03-18T12:35:33;94941.75;;;17.21;33.66
6393;BME280;3229;42.674;23.282;2023-03-18T12:38:40;94944.31;;;17.21;33.59
6393;BME280;3229;42.674;23.282;2023-03-18T12:41:14;94936.75;;;17.19;33.61
6393;BME280;3229;42.674;23.282;2023-03-18T12:43:51;94934.22;;;17.11;33.59
6393;BME280;3229;42.674;23.282;2023-03-18T12:46:27;94929.38;;;17.08;33.49
6393;BME280;3229;42.674;23.282;2023-03-18T12:49:02;94922.72;;;17.14;33.56
6393;BME280;3229;42.674;23.282;2023-03-18T12:51:41;94886.38;;;16.92;33.49
6393;BME280;3229;42.674;23.282;2023-03-18T12:54:13;94933.00;;;17.22;33.42
6393;BME280;3229;42.674;23.282;2023-03-18T12:56:45;94933.66;;;17.24;33.54
6393;BME280;3229;42.674;23.282;2023-03-18T12:59:22;94929.09;;;17.26;33.33
6393;BME280;3229;42.674;23.282;2023-03-18T13:02:02;94937.50;;;17.28;33.32
6393;BME280;3229;42.674;23.282;2023-03-18T13:04:32;94927.38;;;17.18;33.53
6393;BME280;3229;42.674;23.282;2023-03-18T13:07:04;94936.66;;;17.04;33.38
6393;BME280;3229;42.674;23.282;2023-03-18T13:09:44;94940.19;;;16.89;33.85
6393;BME280;3229;42.674;23.282;2023-03-18T13:12:16;94936.19;;;16.78;33.71
6393;BME280;3229;42.674;23.282;2023-03-18T13:14:53;94937.00;;;16.78;33.65
6393;BME280;3229;42.674;23.282;2023-03-18T13:17:24;94927.13;;;16.82;33.79
6393;BME280;3229;42.674;23.282;2023-03-18T13:19:58;94926.63;;;16.87;33.67
6393;BME280;3229;42.674;23.282;2023-03-18T13:22:51;94935.91;;;16.96;33.63
6393;BME280;3229;42.674;23.282;2023-03-18T13:25:29;94937.66;;;17.03;33.53
6393;BME280;3229;42.674;23.282;2023-03-18T13:28:28;94931.63;;;17.11;33.41
6393;BME280;3229;42.674;23.282;2023-03-18T13:31:08;94942.06;;;17.18;33.36
6393;BME280;3229;42.674;23.282;2023-03-18T13:33:49;94926.75;;;17.16;33.31
6393;BME280;3229;42.674;23.282;2023-03-18T13:36:35;94934.88;;;17.05;33.54